KBOS/BOS METAR and TAF weather

Enter ICAO airport designator
Station Type Date Time Source
KBOS METAR 2021/05/14 12:54 UTC NOAA

KBOS 141254Z 33009KT 10SM CLR 20/02 A3019 RMK AO2 SLP221 T02000022


Station Type Date Time Source
KBOS Decoded METAR 2021/05/14 12:54 UTC NOAA

BOSTON LOGAN INTERNATIONAL, MA, United States (KBOS) 42-22N 071-01W 54M
May 14, 2021 - 08:54 AM EDT / 2021.05.14 1254 UTC
Wind: from the NNW (330 degrees) at 10 MPH (9 KT):0
Visibility: 10 mile(s):0
Sky conditions: clear
Temperature: 68.0 F (20.0 C)
Dew Point: 36.0 F (2.2 C)
Relative Humidity: 30%
Pressure (altimeter): 30.19 in. Hg (1022 hPa)
ob: KBOS 141254Z 33009KT 10SM CLR 20/02 A3019 RMK AO2 SLP221 T02000022
cycle: 13

Station Type Date Time Source
KBOS TAF 2021/05/14 12:25 UTC NOAA

TAF KBOS 141120Z 1412/1518 29010KT P6SM SKC
FM141600 13008KT P6SM BKN070
FM142200 24006KT P6SM SCT070
FM151000 29003KT P6SM FEW200
FM151500 13005KT P6SM FEW200

Example: see airport list